Time;durP1;ratioP1;P1;durP2;ratioP2;P2;SDS_P1;SDS_P2;PMS_P1;PMS_P2;Temp;Humidity;BMP_temperature;BMP_pressure;BME280_temperature;BME280_humidity;BME280_pressure;Samples;Min_cycle;Max_cycle;Signal;HPM_P1;HPM_P2
2023/12/24 00:02:04;;;;;;;1.75;0.55;;;;;;;9.83;100.00;100908.59;5096785;27;97751;-27
2023/12/24 00:04:29;;;;;;;0.57;0.38;;;;;;;9.82;100.00;100896.91;5097260;27;96622;-28
2023/12/24 00:06:55;;;;;;;0.70;0.15;;;;;;;9.84;100.00;100894.09;5097634;27;96612;-28
2023/12/24 00:09:20;;;;;;;0.47;0.20;;;;;;;9.89;100.00;100889.28;5078203;27;98217;-28
2023/12/24 00:11:45;;;;;;;2.08;0.30;;;;;;;9.79;100.00;100870.88;5096731;27;97333;-28
2023/12/24 00:14:11;;;;;;;2.72;0.25;;;;;;;9.89;100.00;100859.53;5096565;27;96477;-28
2023/12/24 00:16:41;;;;;;;2.45;0.60;;;;;;;9.88;100.00;100852.41;5097120;27;96794;-28
2023/12/24 00:19:06;;;;;;;1.40;0.32;;;;;;;9.83;100.00;100833.72;5096452;27;100934;-29
2023/12/24 00:21:31;;;;;;;3.72;0.43;;;;;;;9.85;100.00;100839.06;5096782;27;97853;-28
2023/12/24 00:23:57;;;;;;;0.43;0.22;;;;;;;9.85;100.00;100829.09;5097060;27;96569;-29
2023/12/24 00:26:22;;;;;;;1.52;0.50;;;;;;;9.85;100.00;100837.22;5097026;27;96870;-28
2023/12/24 00:28:49;;;;;;;0.52;0.32;;;;;;;9.82;100.00;100831.09;5096696;27;97891;-28
2023/12/24 00:31:14;;;;;;;2.03;0.45;;;;;;;9.83;100.00;100832.84;5096540;27;99330;-28
2023/12/24 00:33:39;;;;;;;2.55;0.52;;;;;;;9.86;100.00;100847.06;5096852;27;96647;-28
2023/12/24 00:36:05;;;;;;;1.20;0.32;;;;;;;9.87;100.00;100847.97;5096317;27;96909;-28
2023/12/24 00:38:30;;;;;;;0.13;0.08;;;;;;;9.88;100.00;100853.25;5095926;27;97510;-28
2023/12/24 00:40:56;;;;;;;0.52;0.30;;;;;;;9.85;100.00;100841.75;5096702;27;97218;-28
2023/12/24 00:43:21;;;;;;;1.10;0.50;;;;;;;9.88;100.00;100823.50;5096773;27;96461;-28
2023/12/24 00:45:47;;;;;;;0.22;0.10;;;;;;;9.86;100.00;100833.53;5096289;27;96738;-28
2023/12/24 00:48:13;;;;;;;4.22;0.70;;;;;;;9.84;100.00;100830.03;5095963;27;99499;-28
2023/12/24 00:50:38;;;;;;;3.35;0.20;;;;;;;9.94;100.00;100849.34;5096449;27;97081;-28
2023/12/24 00:53:03;;;;;;;1.73;0.28;;;;;;;9.90;100.00;100829.69;5096052;27;96793;-28
2023/12/24 00:55:29;;;;;;;3.20;0.47;;;;;;;9.90;100.00;100829.69;5096120;27;96899;-28
2023/12/24 00:57:54;;;;;;;2.30;0.25;;;;;;;9.91;100.00;100817.03;5095809;27;99382;-28
2023/12/24 01:00:19;;;;;;;0.20;0.20;;;;;;;9.91;100.00;100807.06;5095755;27;99121;-28
2023/12/24 01:02:45;;;;;;;2.05;0.25;;;;;;;9.96;100.00;100812.22;5095924;27;96610;-28
2023/12/24 01:05:10;;;;;;;4.05;0.32;;;;;;;9.92;100.00;100798.00;5096237;27;96868;-27
2023/12/24 01:07:35;;;;;;;2.30;0.50;;;;;;;9.92;100.00;100805.25;5077617;27;97395;-28
2023/12/24 01:10:01;;;;;;;1.50;0.43;;;;;;;9.91;100.00;100800.81;5095930;27;97771;-28
2023/12/24 01:12:26;;;;;;;4.28;0.65;;;;;;;9.86;100.00;100792.09;5096685;27;96503;-28
2023/12/24 01:14:51;;;;;;;3.83;0.45;;;;;;;9.88;100.00;100798.28;5096508;27;96800;-28
2023/12/24 01:17:17;;;;;;;5.28;0.93;;;;;;;9.86;100.00;100789.38;5095650;27;97882;-28
2023/12/24 01:19:43;;;;;;;1.48;0.32;;;;;;;9.84;100.00;100802.13;5095823;27;98443;-28
2023/12/24 01:22:09;;;;;;;2.58;0.55;;;;;;;9.77;100.00;100780.88;5077431;27;96885;-28
2023/12/24 01:24:34;;;;;;;2.17;0.40;;;;;;;9.86;100.00;100816.44;5096219;27;96818;-28
2023/12/24 01:26:59;;;;;;;5.10;1.20;;;;;;;9.82;100.00;100799.53;5095209;27;99313;-27
2023/12/24 01:29:25;;;;;;;0.38;0.25;;;;;;;9.81;100.00;100805.03;5095774;27;97976;-28
2023/12/24 01:31:50;;;;;;;0.90;0.20;;;;;;;9.80;100.00;100804.16;5095598;27;96688;-28
2023/12/24 01:34:15;;;;;;;2.30;0.75;;;;;;;9.83;100.00;100808.50;5096125;27;96789;-28
2023/12/24 01:36:41;;;;;;;1.35;0.43;;;;;;;9.83;100.00;100819.34;5095194;27;99540;-29
2023/12/24 01:39:10;;;;;;;4.80;0.35;;;;;;;9.80;100.00;100806.88;5095580;27;97817;-27
2023/12/24 01:41:35;;;;;;;1.70;0.75;;;;;;;9.79;100.00;100786.16;5077320;27;96571;-28
2023/12/24 01:44:01;;;;;;;0.90;0.30;;;;;;;9.79;100.00;100797.84;5096554;27;96791;-28
2023/12/24 01:46:27;;;;;;;2.58;0.47;;;;;;;9.74;100.00;100781.03;5095482;27;98056;-28
2023/12/24 01:48:53;;;;;;;2.85;0.73;;;;;;;9.78;100.00;100785.31;5095481;27;97918;-28
2023/12/24 01:51:20;;;;;;;5.75;1.30;;;;;;;9.76;100.00;100792.63;5095072;27;96764;-28
2023/12/24 01:53:48;;;;;;;1.45;0.35;;;;;;;9.76;100.00;100784.50;5076969;27;96982;-27
2023/12/24 01:56:15;;;;;;;0.38;0.30;;;;;;;9.73;100.00;100773.03;5095150;27;99572;-28
2023/12/24 01:58:41;;;;;;;0.10;0.10;;;;;;;9.75;100.00;100790.03;5076478;27;101554;-29
2023/12/24 02:01:06;;;;;;;4.43;0.22;;;;;;;9.69;100.00;100764.19;5095522;27;96628;-29
2023/12/24 02:03:32;;;;;;;0.50;0.17;;;;;;;9.73;100.00;100768.47;5095401;27;96946;-28
2023/12/24 02:05:57;;;;;;;0.77;0.20;;;;;;;9.73;100.00;100771.19;5095306;27;98122;-29
2023/12/24 02:08:23;;;;;;;0.47;0.30;;;;;;;9.69;100.00;100756.09;5098906;27;97789;-29
2023/12/24 02:10:48;;;;;;;6.20;0.40;;;;;;;9.69;100.00;100744.41;5098916;27;96500;-29
2023/12/24 02:13:15;;;;;;;0.50;0.08;;;;;;;9.65;100.00;100737.44;5099360;27;96796;-28
2023/12/24 02:15:40;;;;;;;4.65;0.55;;;;;;;9.66;100.00;100728.38;5079566;27;101445;-29
2023/12/24 02:18:08;;;;;;;0.88;0.32;;;;;;;9.67;100.00;100752.59;5098738;27;98401;-27
2023/12/24 02:20:34;;;;;;;1.40;0.17;;;;;;;9.66;100.00;100745.47;5080212;27;96803;-28
2023/12/24 02:22:59;;;;;;;2.55;0.25;;;;;;;9.66;100.00;100742.75;5099008;27;96850;-28
2023/12/24 02:25:26;;;;;;;0.75;0.28;;;;;;;9.65;100.00;100748.25;5098614;27;97380;-28
2023/12/24 02:27:57;;;;;;;2.45;0.75;;;;;;;9.67;100.00;100735.50;5079861;27;100923;-28
2023/12/24 02:30:29;;;;;;;1.75;0.10;;;;;;;9.64;100.00;100739.28;5099032;27;96623;-28
2023/12/24 02:32:56;;;;;;;0.47;0.25;;;;;;;9.67;100.00;100744.50;5080372;27;96589;-28
2023/12/24 02:35:25;;;;;;;1.30;0.20;;;;;;;9.64;100.00;100728.44;5098118;27;97391;-28
2023/12/24 02:37:51;;;;;;;4.03;0.55;;;;;;;9.66;100.00;100718.41;5079535;27;100722;-28
2023/12/24 02:40:16;;;;;;;1.30;0.47;;;;;;;9.64;100.00;100724.88;5098115;27;96551;-28
2023/12/24 02:42:42;;;;;;;0.30;0.10;;;;;;;9.66;100.00;100723.81;5098222;27;96880;-28
2023/12/24 02:45:07;;;;;;;0.35;0.20;;;;;;;9.69;100.00;100720.94;5097967;27;99075;-28
2023/12/24 02:47:33;;;;;;;0.32;0.10;;;;;;;9.68;100.00;100712.94;5079528;27;99714;-28
2023/12/24 02:49:58;;;;;;;0.25;0.20;;;;;;;9.72;100.00;100714.47;5098547;27;96679;-28
2023/12/24 02:52:23;;;;;;;0.22;0.10;;;;;;;9.69;100.00;100685.78;5097917;27;96837;-28
2023/12/24 02:54:49;;;;;;;0.08;0.00;;;;;;;9.66;100.00;100685.97;5097953;27;99269;-27
2023/12/24 02:57:15;;;;;;;1.23;0.30;;;;;;;9.74;100.00;100699.88;5098175;27;97850;-27
2023/12/24 02:59:40;;;;;;;0.82;0.25;;;;;;;9.73;100.00;100684.63;5098368;27;96544;-28
2023/12/24 03:02:06;;;;;;;1.60;0.20;;;;;;;9.78;100.00;100698.75;5098564;27;96767;-28
2023/12/24 03:04:31;;;;;;;0.60;0.30;;;;;;;9.78;100.00;100676.25;5097234;27;98790;-28
2023/12/24 03:06:56;;;;;;;0.75;0.20;;;;;;;9.81;100.00;100694.97;5097894;27;97751;-28
2023/12/24 03:09:22;;;;;;;0.00;0.00;;;;;;;9.83;100.00;100684.94;5098361;27;96656;-28
2023/12/24 03:11:47;;;;;;;2.97;0.43;;;;;;;9.81;100.00;100670.63;5097803;27;96865;-28
2023/12/24 03:14:12;;;;;;;0.55;0.20;;;;;;;9.81;100.00;100684.16;5097465;27;99592;-28
2023/12/24 03:16:38;;;;;;;0.65;0.52;;;;;;;9.82;100.00;100671.50;5097801;27;97894;-28
2023/12/24 03:19:03;;;;;;;0.15;0.03;;;;;;;9.87;100.00;100672.09;5097471;27;96539;-28
2023/12/24 03:21:28;;;;;;;1.42;0.40;;;;;;;9.88;100.00;100679.25;5098318;27;96826;-27
2023/12/24 03:23:54;;;;;;;0.55;0.10;;;;;;;9.88;100.00;100668.44;5097696;27;97917;-29
2023/12/24 03:26:20;;;;;;;1.52;0.32;;;;;;;9.84;100.00;100669.56;5097669;27;97792;-28
2023/12/24 03:28:47;;;;;;;1.13;0.28;;;;;;;9.84;100.00;100640.69;5078669;27;96620;-28
2023/12/24 03:31:13;;;;;;;1.05;0.13;;;;;;;9.85;100.00;100646.97;5079095;27;96838;-29
2023/12/24 03:33:38;;;;;;;1.25;0.20;;;;;;;9.91;100.00;100660.09;5097583;27;97542;-28
2023/12/24 03:36:07;;;;;;;0.70;0.38;;;;;;;9.90;100.00;100653.84;5097207;27;97798;-27
2023/12/24 03:38:32;;;;;;;0.32;0.20;;;;;;;9.93;100.00;100655.47;5079168;27;96669;-28
2023/12/24 03:40:57;;;;;;;3.83;0.55;;;;;;;9.87;100.00;100648.63;5097570;27;96765;-28
2023/12/24 03:43:23;;;;;;;0.47;0.30;;;;;;;9.87;100.00;100658.59;5097216;27;98089;-28
2023/12/24 03:45:48;;;;;;;0.50;0.28;;;;;;;9.87;100.00;100655.88;5097586;27;97416;-28
2023/12/24 03:48:13;;;;;;;1.17;0.30;;;;;;;9.89;100.00;100653.91;5097304;27;96485;-28
2023/12/24 03:50:39;;;;;;;2.65;0.43;;;;;;;9.89;100.00;100646.69;5097315;27;96774;-28
2023/12/24 03:53:05;;;;;;;1.00;0.47;;;;;;;9.92;100.00;100642.94;5095826;27;99421;-28
2023/12/24 03:55:31;;;;;;;0.35;0.15;;;;;;;9.93;100.00;100644.66;5096767;27;99098;-28
2023/12/24 03:57:56;;;;;;;0.65;0.20;;;;;;;9.89;100.00;100637.69;5097442;27;96670;-28
2023/12/24 04:00:21;;;;;;;0.77;0.15;;;;;;;9.90;100.00;100634.91;5097418;27;96920;-27
2023/12/24 04:02:47;;;;;;;1.40;0.50;;;;;;;9.93;100.00;100644.66;5097034;27;97490;-28
2023/12/24 04:05:13;;;;;;;1.13;0.28;;;;;;;9.93;100.00;100641.94;5096712;27;99269;-28
2023/12/24 04:07:38;;;;;;;0.88;0.20;;;;;;;9.96;100.00;100660.69;5097318;27;96557;-28
2023/12/24 04:10:04;;;;;;;0.55;0.35;;;;;;;9.95;100.00;100642.72;5097221;27;96878;-28
2023/12/24 04:12:29;;;;;;;3.85;0.32;;;;;;;9.95;100.00;100648.13;5096692;27;100730;-28
2023/12/24 04:14:55;;;;;;;0.43;0.25;;;;;;;9.95;100.00;100649.00;5096769;27;97952;-28
2023/12/24 04:17:20;;;;;;;2.33;0.57;;;;;;;9.96;100.00;100633.63;5096255;27;96624;-29
2023/12/24 04:19:46;;;;;;;1.00;0.22;;;;;;;9.95;100.00;100631.91;5097113;27;96862;-28
2023/12/24 04:22:11;;;;;;;1.05;0.25;;;;;;;9.95;100.00;100631.91;5096496;27;99153;-28
2023/12/24 04:24:37;;;;;;;0.98;0.38;;;;;;;9.94;100.00;100620.22;5096541;27;97343;-30
2023/12/24 04:27:02;;;;;;;1.80;0.50;;;;;;;10.03;100.00;100644.94;5097205;27;96572;-28
2023/12/24 04:29:28;;;;;;;1.10;0.60;;;;;;;9.98;100.00;100632.56;5096649;27;96750;-30
2023/12/24 04:31:53;;;;;;;5.05;0.30;;;;;;;10.05;100.00;100643.88;5095587;27;98589;-28
2023/12/24 04:34:18;;;;;;;0.60;0.38;;;;;;;9.99;100.00;100638.88;5096828;27;97331;-27
2023/12/24 04:36:43;;;;;;;0.28;0.20;;;;;;;10.03;100.00;100637.69;5096595;27;96521;-27
2023/12/24 04:39:09;;;;;;;1.23;0.50;;;;;;;10.06;100.00;100642.03;5097009;27;96860;-28
2023/12/24 04:41:34;;;;;;;1.75;0.40;;;;;;;10.03;100.00;100631.41;5096253;27;97436;-28
2023/12/24 04:43:59;;;;;;;1.25;0.73;;;;;;;10.08;100.00;100634.69;5096497;27;97332;-28
2023/12/24 04:46:25;;;;;;;2.00;0.43;;;;;;;10.04;100.00;100631.34;5096674;27;96624;-28
2023/12/24 04:48:50;;;;;;;0.80;0.32;;;;;;;10.06;100.00;100634.81;5096511;27;96629;-28
2023/12/24 04:51:16;;;;;;;3.97;0.80;;;;;;;10.07;100.00;100639.25;5096125;27;97936;-28
2023/12/24 04:53:41;;;;;;;0.28;0.20;;;;;;;10.06;100.00;100640.22;5095525;27;98259;-28
2023/12/24 04:56:06;;;;;;;0.55;0.32;;;;;;;10.09;100.00;100633.75;5096353;27;96728;-28
2023/12/24 04:58:32;;;;;;;1.52;0.40;;;;;;;10.08;100.00;100630.19;5097027;27;96861;-28
2023/12/24 05:00:57;;;;;;;0.52;0.32;;;;;;;10.13;100.00;100633.47;5096300;27;97990;-28
2023/12/24 05:03:23;;;;;;;1.35;0.52;;;;;;;10.14;100.00;100629.78;5095750;27;99860;-28
2023/12/24 05:05:48;;;;;;;2.13;0.38;;;;;;;10.09;100.00;100629.19;5095873;27;96627;-28
2023/12/24 05:08:13;;;;;;;5.38;0.38;;;;;;;10.14;100.00;100632.47;5096658;27;96863;-28
2023/12/24 05:10:39;;;;;;;3.10;0.55;;;;;;;10.13;100.00;100638.88;5095853;27;98037;-28
2023/12/24 05:13:04;;;;;;;1.80;0.50;;;;;;;10.15;100.00;100626.13;5095993;27;97329;-28
2023/12/24 05:15:29;;;;;;;1.58;0.73;;;;;;;10.17;100.00;100632.28;5096212;27;96565;-28
2023/12/24 05:17:55;;;;;;;0.93;0.35;;;;;;;10.19;100.00;100613.25;5096258;27;96898;-29
2023/12/24 05:20:20;;;;;;;0.82;0.30;;;;;;;10.15;100.00;100607.19;5095552;27;99521;-28
2023/12/24 05:22:45;;;;;;;1.20;0.20;;;;;;;10.17;100.00;100605.22;5096312;27;97827;-28
2023/12/24 05:25:11;;;;;;;0.88;0.52;;;;;;;10.21;100.00;100604.06;5095836;27;96761;-27
2023/12/24 05:27:38;;;;;;;2.97;0.45;;;;;;;10.21;100.00;100609.47;5077368;27;96901;-28
2023/12/24 05:30:05;;;;;;;0.38;0.30;;;;;;;10.18;100.00;100598.84;5095077;27;99028;-29
2023/12/24 05:32:30;;;;;;;6.85;1.00;;;;;;;10.18;100.00;100601.56;5095434;27;97459;-29
2023/12/24 05:34:55;;;;;;;7.38;0.77;;;;;;;10.21;100.00;100605.91;5095758;27;96631;-28
2023/12/24 05:37:21;;;;;;;3.70;1.25;;;;;;;10.24;100.00;100602.13;5095813;27;96925;-28
2023/12/24 05:39:46;;;;;;;1.85;0.45;;;;;;;10.16;100.00;100589.97;5095176;27;99452;-28
2023/12/24 05:42:12;;;;;;;1.95;0.55;;;;;;;10.23;100.00;100600.41;5097182;27;97476;-28
2023/12/24 05:44:37;;;;;;;3.83;0.40;;;;;;;10.27;100.00;100607.34;5099536;27;96699;-28
2023/12/24 05:47:02;;;;;;;0.98;0.40;;;;;;;10.28;100.00;100610.00;5099658;27;97076;-28
2023/12/24 05:49:28;;;;;;;1.60;0.73;;;;;;;10.26;100.00;100592.94;5099463;27;97897;-29
2023/12/24 05:51:54;;;;;;;0.95;0.47;;;;;;;10.26;100.00;100595.66;5098540;27;97880;-28
2023/12/24 05:54:19;;;;;;;4.05;0.38;;;;;;;10.25;100.00;100595.72;5080196;27;96889;-28
2023/12/24 05:56:44;;;;;;;3.63;1.15;;;;;;;10.29;100.00;100614.41;5099151;27;96846;-28
2023/12/24 05:59:10;;;;;;;2.13;0.68;;;;;;;10.32;100.00;100602.53;5099420;27;97725;-28
2023/12/24 06:01:35;;;;;;;2.33;0.47;;;;;;;10.31;100.00;100595.38;5099025;27;97765;-27
2023/12/24 06:04:00;;;;;;;3.50;0.75;;;;;;;10.27;100.00;100572.16;5099183;27;96805;-28
2023/12/24 06:06:26;;;;;;;1.30;0.25;;;;;;;10.28;100.00;100574.78;5099304;27;96878;-28
2023/12/24 06:08:51;;;;;;;7.15;0.77;;;;;;;10.30;100.00;100574.72;5098447;27;100034;-28
2023/12/24 06:11:17;;;;;;;0.22;0.22;;;;;;;10.21;100.00;100558.03;5099125;27;97772;-28
2023/12/24 06:13:42;;;;;;;3.72;0.82;;;;;;;10.31;100.00;100563.75;5099170;27;96496;-28
2023/12/24 06:16:08;;;;;;;4.15;0.65;;;;;;;10.33;100.00;100579.91;5098715;27;96903;-30
2023/12/24 06:18:33;;;;;;;7.63;1.17;;;;;;;10.35;100.00;100562.59;5098400;27;97959;-28
2023/12/24 06:20:58;;;;;;;3.50;0.63;;;;;;;10.38;100.00;100580.47;5098328;27;102117;-27
2023/12/24 06:23:24;;;;;;;3.63;0.70;;;;;;;10.35;100.00;100565.31;5099066;27;96689;-27
2023/12/24 06:25:49;;;;;;;4.88;0.70;;;;;;;10.38;100.00;100565.09;5099051;27;96838;-27
2023/12/24 06:28:14;;;;;;;3.80;0.65;;;;;;;10.35;100.00;100556.31;5098628;27;97445;-28
2023/12/24 06:30:40;;;;;;;2.05;0.52;;;;;;;10.40;100.00;100586.66;5098512;27;98306;-29
2023/12/24 06:33:05;;;;;;;5.22;0.47;;;;;;;10.41;100.00;100591.09;5098753;27;96570;-28
2023/12/24 06:35:31;;;;;;;0.65;0.47;;;;;;;10.40;100.00;100587.53;5098711;27;96846;-28
2023/12/24 06:37:57;;;;;;;1.30;0.43;;;;;;;10.40;100.00;100579.41;5098176;27;98059;-30
2023/12/24 06:40:22;;;;;;;3.88;0.70;;;;;;;10.42;100.00;100582.03;5079581;27;101089;-28
2023/12/24 06:42:48;;;;;;;2.50;0.77;;;;;;;10.45;100.00;100573.69;5098312;27;96662;-27
2023/12/24 06:45:14;;;;;;;4.20;0.57;;;;;;;10.49;100.00;100593.34;5079753;27;96826;-29
2023/12/24 06:47:39;;;;;;;7.38;0.43;;;;;;;10.49;100.00;100601.47;5098282;27;98124;-28
2023/12/24 06:50:05;;;;;;;0.50;0.20;;;;;;;10.50;100.00;100598.63;5098485;27;97353;-28
2023/12/24 06:52:32;;;;;;;1.73;0.43;;;;;;;10.50;100.00;100584.22;5078690;27;96977;-29
2023/12/24 06:54:58;;;;;;;2.17;0.70;;;;;;;10.50;100.00;100585.09;5078726;27;96952;-28
2023/12/24 06:57:23;;;;;;;1.25;0.52;;;;;;;10.49;100.00;100580.66;5097929;27;97239;-27
2023/12/24 06:59:49;;;;;;;3.83;0.90;;;;;;;10.51;100.00;100586.84;5098749;27;97172;-28
2023/12/24 07:02:16;;;;;;;5.10;0.82;;;;;;;10.52;100.00;100590.41;5098344;27;96658;-27
2023/12/24 07:04:41;;;;;;;0.57;0.15;;;;;;;10.51;100.00;100577.81;5079660;27;96990;-29
2023/12/24 07:07:06;;;;;;;6.32;1.02;;;;;;;10.49;100.00;100588.78;5097280;27;97913;-28
2023/12/24 07:09:32;;;;;;;2.08;0.95;;;;;;;10.52;100.00;100588.56;5097951;27;97782;-28
2023/12/24 07:11:57;;;;;;;3.60;1.23;;;;;;;10.53;100.00;100590.28;5097959;27;96520;-28
2023/12/24 07:14:22;;;;;;;2.38;0.85;;;;;;;10.53;100.00;100584.88;5098260;27;96890;-28
2023/12/24 07:16:48;;;;;;;2.58;0.63;;;;;;;10.49;100.00;100577.09;5097693;27;97441;-29
2023/12/24 07:19:13;;;;;;;5.22;0.70;;;;;;;10.51;100.00;100586.84;5097775;27;97958;-27
2023/12/24 07:21:38;;;;;;;1.92;0.47;;;;;;;10.52;100.00;100591.28;5098400;27;96524;-28
2023/12/24 07:24:04;;;;;;;4.57;0.82;;;;;;;10.54;100.00;100581.22;5098454;27;96876;-28
2023/12/24 07:26:29;;;;;;;4.60;0.60;;;;;;;10.54;100.00;100583.06;5097645;27;98239;-28
2023/12/24 07:28:55;;;;;;;4.22;0.50;;;;;;;10.46;100.00;100564.59;5097595;27;97338;-28
2023/12/24 07:31:20;;;;;;;1.27;0.28;;;;;;;10.48;100.00;100565.34;5097488;27;96537;-28
2023/12/24 07:33:46;;;;;;;0.60;0.25;;;;;;;10.48;100.00;100564.50;5097884;27;97005;-28
2023/12/24 07:36:11;;;;;;;1.38;0.47;;;;;;;10.43;100.00;100559.38;5096602;27;99548;-28
2023/12/24 07:38:36;;;;;;;3.20;0.95;;;;;;;10.46;100.00;100564.59;5097553;27;97777;-28
2023/12/24 07:41:03;;;;;;;0.60;0.20;;;;;;;10.51;100.00;100567.88;5097832;27;96629;-28
2023/12/24 07:43:29;;;;;;;0.57;0.30;;;;;;;10.49;100.00;100577.94;5097651;27;96899;-28
2023/12/24 07:45:54;;;;;;;0.75;0.40;;;;;;;10.47;100.00;100570.91;5097223;27;99471;-28
2023/12/24 07:48:19;;;;;;;3.15;0.70;;;;;;;10.54;100.00;100578.50;5097487;27;98839;-28
2023/12/24 07:50:45;;;;;;;0.77;0.38;;;;;;;10.51;100.00;100569.69;5097244;27;96813;-29
2023/12/24 07:53:10;;;;;;;4.63;0.68;;;;;;;10.52;100.00;100558.78;5096630;27;96886;-28
2023/12/24 07:55:36;;;;;;;7.30;1.00;;;;;;;10.54;100.00;100570.38;5096683;27;98010;-27
2023/12/24 07:58:01;;;;;;;2.63;0.75;;;;;;;10.52;100.00;100553.38;5096921;27;97963;-28
2023/12/24 08:00:26;;;;;;;1.48;0.65;;;;;;;10.53;100.00;100552.38;5097483;27;96659;-28
2023/12/24 08:02:52;;;;;;;6.63;0.70;;;;;;;10.48;100.00;100549.13;5078971;27;96865;-28
2023/12/24 08:05:17;;;;;;;7.82;1.02;;;;;;;10.51;100.00;100545.34;5096882;27;97642;-28
2023/12/24 08:07:43;;;;;;;4.28;0.90;;;;;;;10.57;100.00;100553.06;5096521;27;98753;-28
2023/12/24 08:10:08;;;;;;;0.90;0.45;;;;;;;10.56;100.00;100563.03;5097253;27;96756;-28
2023/12/24 08:12:33;;;;;;;7.50;1.25;;;;;;;10.60;100.00;100558.25;5097318;27;96985;-28
2023/12/24 08:14:59;;;;;;;1.83;0.50;;;;;;;10.60;100.00;100564.53;5096975;27;97413;-28
2023/12/24 08:17:24;;;;;;;1.50;0.40;;;;;;;10.58;100.00;100561.09;5096768;27;97826;-29
2023/12/24 08:19:50;;;;;;;2.17;0.57;;;;;;;10.56;100.00;100554.91;5096609;27;96564;-28
2023/12/24 08:22:15;;;;;;;1.60;0.77;;;;;;;10.59;100.00;100568.25;5096924;27;96882;-28
2023/12/24 08:24:40;;;;;;;2.63;1.17;;;;;;;10.64;100.00;100559.81;5096519;27;99322;-28
2023/12/24 08:27:06;;;;;;;5.20;1.02;;;;;;;10.65;100.00;100561.53;5096739;27;97414;-28
2023/12/24 08:29:31;;;;;;;4.55;1.05;;;;;;;10.62;100.00;100556.31;5096684;27;96573;-28
2023/12/24 08:31:57;;;;;;;2.70;0.95;;;;;;;10.65;100.00;100561.53;5096583;27;96888;-28
2023/12/24 08:34:23;;;;;;;1.65;0.80;;;;;;;10.68;100.00;100572.19;5096517;27;98049;-28
2023/12/24 08:36:48;;;;;;;3.83;0.52;;;;;;;10.70;100.00;100575.66;5096293;27;99353;-28
2023/12/24 08:39:14;;;;;;;9.07;1.75;;;;;;;10.68;100.00;100587.53;5096867;27;97166;-28
2023/12/24 08:41:40;;;;;;;3.40;0.65;;;;;;;10.67;100.00;100574.97;5096457;27;96960;-28
2023/12/24 08:44:05;;;;;;;6.97;0.98;;;;;;;10.67;100.00;100562.31;5096078;27;98018;-27
2023/12/24 08:56:35;;;;;;;6.85;0.90;;;;;;;10.72;100.00;100573.69;5094174;27;97075;-27
2023/12/24 08:59:03;;;;;;;1.48;0.43;;;;;;;10.69;100.00;100564.91;5096041;27;99007;-28
2023/12/24 09:01:29;;;;;;;3.22;0.90;;;;;;;10.74;100.00;100565.47;5077694;27;96857;-28
2023/12/24 09:03:54;;;;;;;5.00;0.65;;;;;;;10.72;100.00;100554.72;5096659;27;96833;-28
2023/12/24 09:06:19;;;;;;;1.55;0.65;;;;;;;10.70;100.00;100540.44;5096299;27;97500;-27
2023/12/24 09:08:45;;;;;;;4.00;0.80;;;;;;;10.73;100.00;100539.38;5096359;27;97205;-30
2023/12/24 09:11:10;;;;;;;6.68;1.52;;;;;;;10.75;100.00;100568.09;5077175;27;96827;-29
2023/12/24 09:13:36;;;;;;;7.97;1.13;;;;;;;10.77;100.00;100549.91;5095902;27;96902;-28
2023/12/24 09:16:03;;;;;;;5.72;1.20;;;;;;;10.77;100.00;100552.63;5095238;27;99486;-28
2023/12/24 09:18:28;;;;;;;7.88;1.25;;;;;;;10.75;100.00;100551.84;5076774;27;101069;-28
2023/12/24 09:20:54;;;;;;;4.30;0.93;;;;;;;10.78;100.00;100548.91;5096363;27;96473;-28
2023/12/24 09:23:19;;;;;;;5.20;0.77;;;;;;;10.84;100.00;100555.75;5096060;27;96883;-28
2023/12/24 09:25:45;;;;;;;4.75;0.80;;;;;;;10.81;100.00;100546.00;5095950;27;98042;-28
2023/12/24 09:28:10;;;;;;;2.88;1.02;;;;;;;10.83;100.00;100551.31;5096265;27;97735;-31
2023/12/24 09:30:35;;;;;;;4.78;0.88;;;;;;;10.84;100.00;100529.56;5096503;27;96674;-28
2023/12/24 09:33:02;;;;;;;7.18;0.70;;;;;;;10.87;100.00;100524.88;5095995;27;96871;-28
2023/12/24 09:35:29;;;;;;;7.72;0.73;;;;;;;10.91;100.00;100546.22;5076323;27;100996;-28
2023/12/24 09:37:55;;;;;;;6.07;1.33;;;;;;;10.86;100.00;100520.44;5076931;27;98932;-28
2023/12/24 09:40:20;;;;;;;6.55;0.47;;;;;;;10.93;100.00;100544.28;5096039;27;96544;-28
2023/12/24 09:42:45;;;;;;;3.13;1.25;;;;;;;10.92;100.00;100544.41;5095848;27;96896;-28
2023/12/24 09:45:11;;;;;;;6.65;0.82;;;;;;;10.93;100.00;100533.44;5095249;27;99689;-29
2023/12/24 09:47:36;;;;;;;11.00;1.45;;;;;;;10.93;100.00;100525.31;5095360;27;97221;-29
2023/12/24 09:50:02;;;;;;;6.05;1.38;;;;;;;10.93;100.00;100535.31;5095610;27;96611;-28
2023/12/24 09:52:29;;;;;;;5.32;1.27;;;;;;;10.96;100.00;100543.22;5095990;27;96861;-28
2023/12/24 09:54:55;;;;;;;4.28;1.38;;;;;;;10.96;100.00;100551.34;5076676;27;100994;-28
2023/12/24 09:57:20;;;;;;;3.88;0.80;;;;;;;10.98;100.00;100554.81;5076306;27;100777;-28
2023/12/24 09:59:47;;;;;;;3.28;1.13;;;;;;;11.03;100.00;100552.66;5095057;27;96690;-28
2023/12/24 10:02:12;;;;;;;1.90;0.57;;;;;;;11.01;100.00;100560.03;5076694;27;96863;-28
2023/12/24 10:04:37;;;;;;;4.93;0.70;;;;;;;11.00;100.00;100555.59;5095308;27;97621;-28
2023/12/24 10:07:03;;;;;;;1.67;0.52;;;;;;;11.00;100.00;100542.03;5095247;27;99161;-28
2023/12/24 10:09:46;;;;;;;0.95;0.52;;;;;;;11.07;100.00;100558.75;5095453;27;96538;-28
2023/12/24 10:12:12;;;;;;;4.68;0.77;;;;;;;11.09;100.00;100556.81;5095732;27;96536;-28
2023/12/24 10:14:39;;;;;;;3.50;1.15;;;;;;;11.10;100.00;100564.81;5095055;27;97925;-28
2023/12/24 10:17:05;;;;;;;6.25;1.10;;;;;;;11.08;100.00;100566.75;5095422;27;98386;-28
2023/12/24 10:19:31;;;;;;;5.25;1.08;;;;;;;11.14;100.00;100563.66;5076693;27;96585;-28
2023/12/24 10:22:04;;;;;;;1.88;0.82;;;;;;;11.15;100.00;100570.78;5076720;27;96968;-27
2023/12/24 10:24:29;;;;;;;1.17;0.73;;;;;;;11.12;100.00;100560.16;5075925;27;101158;-29
2023/12/24 10:27:10;;;;;;;3.53;0.65;;;;;;;11.07;100.00;100546.06;5094734;27;99063;-27
2023/12/24 10:29:37;;;;;;;2.55;0.90;;;;;;;11.08;100.00;100547.78;5078764;27;96537;-28
2023/12/24 10:32:03;;;;;;;2.08;0.47;;;;;;;11.03;100.00;100531.84;5080230;27;96945;-28
2023/12/24 10:34:30;;;;;;;2.55;0.65;;;;;;;11.09;100.00;100556.81;5098598;27;97583;-27
2023/12/24 10:36:58;;;;;;;2.50;0.43;;;;;;;11.03;100.00;100539.97;5098170;27;97821;-29
2023/12/24 10:39:24;;;;;;;2.33;0.55;;;;;;;11.09;100.00;100548.69;5098407;27;96624;-28
2023/12/24 10:41:56;;;;;;;2.60;0.63;;;;;;;11.08;100.00;100542.38;5080074;27;96870;-28
2023/12/24 10:44:22;;;;;;;1.50;0.45;;;;;;;11.11;100.00;100528.63;5098293;27;98163;-28
2023/12/24 10:46:48;;;;;;;3.45;0.45;;;;;;;11.13;100.00;100544.75;5079518;27;100959;-28
2023/12/24 10:49:13;;;;;;;1.88;0.50;;;;;;;11.23;100.00;100544.03;5079466;27;96487;-28
2023/12/24 10:51:39;;;;;;;2.63;0.65;;;;;;;11.13;100.00;100528.50;5098443;27;96812;-28
2023/12/24 10:54:07;;;;;;;8.60;0.70;;;;;;;11.14;100.00;100525.69;5079528;27;98872;-29
2023/12/24 10:56:54;;;;;;;4.93;0.85;;;;;;;11.13;100.00;100512.22;5079001;27;100762;-28
2023/12/24 10:59:51;;;;;;;5.88;0.60;;;;;;;11.15;100.00;100516.56;5098355;27;96687;-28
2023/12/24 11:02:17;;;;;;;0.60;0.32;;;;;;;11.11;100.00;100509.66;5054156;27;96954;-28
2023/12/24 11:04:48;;;;;;;1.13;0.60;;;;;;;11.11;100.00;100511.47;5079100;27;101103;-28
2023/12/24 11:07:31;;;;;;;1.80;0.73;;;;;;;11.14;100.00;100520.28;5079479;27;100776;-27
2023/12/24 11:09:57;;;;;;;3.45;1.13;;;;;;;11.12;100.00;100495.13;5098678;27;96879;-28
2023/12/24 11:12:36;;;;;;;1.88;0.57;;;;;;;11.15;100.00;100511.16;5097954;27;96903;-28
2023/12/24 11:15:03;;;;;;;0.75;0.30;;;;;;;11.20;100.00;100500.00;5097133;27;99775;-29
2023/12/24 11:17:38;;;;;;;1.67;0.63;;;;;;;11.32;100.00;100496.44;5078778;27;101953;-28
2023/12/24 11:20:22;;;;;;;2.03;0.68;;;;;;;11.36;100.00;100491.66;5079286;27;96638;-28
2023/12/24 11:23:09;;;;;;;0.30;0.20;;;;;;;11.39;100.00;100496.84;5097761;27;96957;-28
2023/12/24 11:25:47;;;;;;;1.20;0.60;;;;;;;11.42;100.00;100492.09;5078841;27;101079;-28